Time;durP1;ratioP1;P1;durP2;ratioP2;P2;SDS_P1;SDS_P2;PMS_P1;PMS_P2;Temp;Humidity;BMP_temperature;BMP_pressure;BME280_temperature;BME280_humidity;BME280_pressure;Samples;Min_cycle;Max_cycle;Signal;HPM_P1;HPM_P2
2021/06/15 02:47:55;;;;;;;15.65;8.48;;;13.60;84.80;;;;;;4721120;30;20140;-74
2021/06/15 02:50:24;;;;;;;13.40;7.82;;;13.60;84.70;;;;;;4720491;30;20231;-74
2021/06/15 02:53:07;;;;;;;13.88;8.82;;;13.50;84.70;;;;;;4725561;30;20040;-74
2021/06/15 02:55:34;;;;;;;14.35;8.40;;;13.60;85.20;;;;;;4715536;30;20309;-75
2021/06/15 02:58:02;;;;;;;14.10;9.15;;;13.50;85.00;;;;;;4724079;30;20092;-75
2021/06/15 03:00:27;;;;;;;14.73;8.70;;;13.60;85.30;;;;;;4735531;30;20388;-75
2021/06/15 03:02:54;;;;;;;14.23;8.30;;;13.50;85.20;;;;;;4724332;30;20194;-75
2021/06/15 03:05:21;;;;;;;17.75;9.43;;;13.60;85.20;;;;;;4729214;30;20090;-75
2021/06/15 03:07:52;;;;;;;16.52;9.48;;;13.60;85.10;;;;;;4711307;30;20025;-75
2021/06/15 03:10:24;;;;;;;12.05;7.97;;;13.60;85.00;;;;;;4726123;30;20067;-75
2021/06/15 03:13:15;;;;;;;15.88;8.77;;;13.70;85.20;;;;;;4738160;30;20324;-76
2021/06/15 03:15:51;;;;;;;13.57;8.15;;;13.70;85.20;;;;;;4733699;30;20255;-75
2021/06/15 03:18:46;;;;;;;15.38;8.50;;;13.70;85.10;;;;;;4739448;30;20086;-76
2021/06/15 03:21:20;;;;;;;16.75;8.23;;;13.70;85.00;;;;;;4714836;30;20107;-75
2021/06/15 03:23:54;;;;;;;18.23;9.10;;;13.70;85.10;;;;;;4714954;30;20032;-75
2021/06/15 03:26:49;;;;;;;16.67;9.57;;;13.80;85.60;;;;;;4714751;30;20029;-75
2021/06/15 03:29:21;;;;;;;16.13;9.13;;;13.80;85.60;;;;;;4725034;30;20246;-75
2021/06/15 03:31:51;;;;;;;15.05;9.88;;;13.80;85.70;;;;;;4723585;30;20033;-75
2021/06/15 03:34:22;;;;;;;20.15;8.27;;;13.80;86.60;;;;;;4730933;30;20044;-75
2021/06/15 03:36:52;;;;;;;15.77;9.73;;;13.80;86.10;;;;;;4733192;30;20037;-75
2021/06/15 03:39:20;;;;;;;18.05;9.82;;;13.90;86.00;;;;;;4713605;30;20041;-77
2021/06/15 03:41:50;;;;;;;17.50;9.48;;;13.90;85.70;;;;;;4729409;30;20041;-75
2021/06/15 03:44:19;;;;;;;13.65;9.10;;;14.00;86.00;;;;;;4737388;30;20029;-75
2021/06/15 03:46:51;;;;;;;19.60;8.65;;;14.10;85.90;;;;;;4725512;30;20045;-76
2021/06/15 03:49:20;;;;;;;14.93;9.93;;;14.10;85.80;;;;;;4723374;30;20033;-76
2021/06/15 03:51:51;;;;;;;16.27;9.90;;;14.20;85.10;;;;;;4714935;30;20081;-76
2021/06/15 03:54:18;;;;;;;16.23;9.63;;;14.20;85.00;;;;;;4734185;30;20065;-75
2021/06/15 03:56:49;;;;;;;;;;;14.40;85.10;;;;;;4722392;30;20351;-77
2021/06/15 03:59:18;;;;;;;16.52;9.38;;;14.40;85.50;;;;;;4720346;30;19965;-75
2021/06/15 04:01:46;;;;;;;17.17;10.07;;;14.50;85.00;;;;;;4717705;30;20113;-76
2021/06/15 04:04:16;;;;;;;17.40;8.73;;;14.60;85.50;;;;;;4723600;30;20057;-75
2021/06/15 04:06:49;;;;;;;18.73;9.95;;;14.70;84.90;;;;;;4717237;30;20093;-76
2021/06/15 04:09:16;;;;;;;19.35;9.40;;;14.80;85.20;;;;;;4725423;30;20296;-76
2021/06/15 04:11:44;;;;;;;20.55;10.57;;;14.90;84.40;;;;;;4731028;30;20416;-75
2021/06/15 04:14:11;;;;;;;22.85;10.40;;;15.00;84.50;;;;;;4727165;30;20052;-76
2021/06/15 04:16:39;;;;;;;21.42;10.15;;;15.10;84.20;;;;;;4722676;30;20304;-75
2021/06/15 04:19:05;;;;;;;;;;;15.30;84.30;;;;;;4736776;30;20108;-76
2021/06/15 04:21:34;;;;;;;37.17;13.48;;;15.40;83.70;;;;;;4717321;30;20098;-75
2021/06/15 04:24:11;;;;;;;24.95;11.70;;;15.50;83.40;;;;;;4730659;30;20041;-76
2021/06/15 04:26:37;;;;;;;;;;;15.60;82.60;;;;;;4717510;30;20350;-76
2021/06/15 04:29:05;;;;;;;24.17;10.60;;;15.80;82.60;;;;;;4717780;30;19911;-76
2021/06/15 04:31:34;;;;;;;21.35;10.40;;;15.80;81.80;;;;;;4720867;30;20035;-75
2021/06/15 04:34:02;;;;;;;20.20;10.27;;;16.00;81.30;;;;;;4716892;30;20036;-75
2021/06/15 04:36:32;;;;;;;27.90;10.57;;;16.10;80.80;;;;;;4727176;30;20100;-75
2021/06/15 04:39:13;;;;;;;21.42;10.45;;;16.20;80.20;;;;;;4736745;30;20060;-76
2021/06/15 04:41:41;;;;;;;18.65;10.80;;;16.40;80.30;;;;;;4715775;30;20045;-75
2021/06/15 04:44:11;;;;;;;23.65;11.30;;;16.50;79.90;;;;;;4728243;30;20264;-75
2021/06/15 04:46:54;;;;;;;22.92;9.85;;;16.60;80.00;;;;;;4719869;30;20080;-76
2021/06/15 04:49:32;;;;;;;26.25;10.52;;;16.70;79.00;;;;;;4735808;30;20085;-76
2021/06/15 04:52:01;;;;;;;23.05;10.52;;;16.80;78.80;;;;;;4738779;30;20029;-76
2021/06/15 04:54:34;;;;;;;17.30;9.68;;;16.90;78.00;;;;;;4720011;30;20088;-76
2021/06/15 04:57:03;;;;;;;19.20;9.32;;;17.00;77.20;;;;;;4722007;30;20057;-75
2021/06/15 04:59:30;;;;;;;23.67;9.77;;;17.20;76.50;;;;;;4720403;30;20032;-76
2021/06/15 05:01:57;;;;;;;23.55;9.82;;;17.30;77.00;;;;;;4721283;30;20044;-76
2021/06/15 05:04:23;;;;;;;26.05;10.77;;;17.40;76.40;;;;;;4732859;30;20041;-76
2021/06/15 05:06:49;;;;;;;17.00;9.25;;;17.50;77.10;;;;;;4741501;30;20310;-76
2021/06/15 05:09:16;;;;;;;21.55;9.48;;;17.60;76.90;;;;;;4719464;30;20057;-75
2021/06/15 05:11:43;;;;;;;18.35;8.77;;;17.70;75.20;;;;;;4718126;30;20104;-75
2021/06/15 05:14:12;;;;;;;29.58;8.85;;;18.00;74.10;;;;;;4724216;30;20408;-75
2021/06/15 05:16:40;;;;;;;17.80;8.88;;;18.80;74.20;;;;;;4732446;30;20077;-75
2021/06/15 05:19:06;;;;;;;23.00;8.38;;;20.10;70.10;;;;;;4732484;30;20052;-76
2021/06/15 05:21:51;;;;;;;34.05;10.30;;;21.40;64.30;;;;;;4723306;30;20104;-75
2021/06/15 05:24:28;;;;;;;25.98;9.43;;;22.60;60.60;;;;;;4736331;30;20036;-75
2021/06/15 05:26:54;;;;;;;19.42;8.32;;;23.80;56.50;;;;;;4723880;30;20044;-75
2021/06/15 05:29:19;;;;;;;38.83;9.55;;;24.70;54.40;;;;;;4726854;30;20033;-76
2021/06/15 05:31:45;;;;;;;30.80;9.18;;;25.40;51.50;;;;;;4720623;30;20075;-76
2021/06/15 05:34:11;;;;;;;42.22;10.43;;;25.80;49.70;;;;;;4717306;30;20108;-75
2021/06/15 05:36:37;;;;;;;28.83;8.90;;;26.20;48.50;;;;;;4716366;30;20022;-76
2021/06/15 05:39:04;;;;;;;27.80;8.17;;;26.80;48.00;;;;;;4733456;30;20037;-77
2021/06/15 05:41:29;;;;;;;22.40;8.05;;;27.10;47.00;;;;;;4715672;30;20637;-76
2021/06/15 05:43:55;;;;;;;26.43;8.23;;;27.40;46.40;;;;;;4727026;30;20021;-76
2021/06/15 05:46:21;;;;;;;27.20;8.20;;;27.70;44.80;;;;;;4718138;30;20077;-76
2021/06/15 05:48:47;;;;;;;37.97;8.67;;;27.90;44.00;;;;;;4704218;30;20216;-75
2021/06/15 05:51:12;;;;;;;19.15;8.25;;;28.10;44.10;;;;;;4726819;30;20049;-75
2021/06/15 05:53:38;;;;;;;23.90;8.73;;;28.10;43.10;;;;;;4727151;30;20078;-73
2021/06/15 05:56:04;;;;;;;21.50;8.38;;;28.00;43.10;;;;;;4726303;30;20380;-76
2021/06/15 05:58:30;;;;;;;24.55;8.57;;;27.70;42.40;;;;;;4721193;30;20321;-77
2021/06/15 06:00:56;;;;;;;19.98;8.90;;;27.60;43.20;;;;;;4716180;30;20033;-76
2021/06/15 06:03:30;;;;;;;23.30;9.03;;;27.30;44.00;;;;;;4717132;30;20022;-76
2021/06/15 06:08:41;;;;;;;24.10;9.40;;;27.20;45.30;;;;;;4734054;30;20033;-75
2021/06/15 06:11:06;;;;;;;28.05;8.82;;;26.90;45.10;;;;;;4737211;30;20044;-76
2021/06/15 06:13:34;;;;;;;27.27;8.43;;;26.70;45.50;;;;;;4724170;30;20025;-76
2021/06/15 06:16:02;;;;;;;25.92;8.43;;;26.70;46.10;;;;;;4726098;30;20032;-76
2021/06/15 06:18:28;;;;;;;27.23;8.50;;;26.80;46.90;;;;;;4737772;30;20048;-76
2021/06/15 06:20:54;;;;;;;23.63;8.05;;;26.80;45.40;;;;;;4716840;30;20033;-76
2021/06/15 06:23:20;;;;;;;21.02;8.75;;;26.50;43.50;;;;;;4720606;30;20025;-77
2021/06/15 06:25:46;;;;;;;18.00;7.47;;;26.30;44.70;;;;;;4732384;30;20112;-76
2021/06/15 06:28:12;;;;;;;12.77;6.70;;;26.10;44.90;;;;;;4731085;30;20025;-75
2021/06/15 06:30:38;;;;;;;14.27;6.32;;;25.90;44.20;;;;;;4737041;30;20100;-76
2021/06/15 06:33:04;;;;;;;20.15;7.10;;;25.90;45.80;;;;;;4718353;30;20138;-76
2021/06/15 06:35:30;;;;;;;16.93;7.00;;;25.90;45.20;;;;;;4733762;30;20116;-76
2021/06/15 06:37:55;;;;;;;18.50;6.78;;;26.10;45.70;;;;;;4723836;30;20265;-76
2021/06/15 06:40:21;;;;;;;27.77;7.35;;;26.20;44.20;;;;;;4720730;30;20033;-76
2021/06/15 06:42:47;;;;;;;20.58;7.43;;;26.30;45.40;;;;;;4717756;30;20062;-76
2021/06/15 06:45:13;;;;;;;21.05;7.00;;;26.10;43.80;;;;;;4719901;30;20033;-76
2021/06/15 06:47:40;;;;;;;19.42;6.95;;;26.00;45.60;;;;;;4722916;30;20052;-76
2021/06/15 06:50:06;;;;;;;22.67;7.70;;;26.00;44.00;;;;;;4723284;30;20217;-77
2021/06/15 06:52:32;;;;;;;16.15;6.70;;;25.90;45.40;;;;;;4727686;30;20126;-76
2021/06/15 06:54:58;;;;;;;15.53;6.87;;;25.70;44.60;;;;;;4723634;30;20084;-76
2021/06/15 06:57:24;;;;;;;20.23;6.78;;;25.70;47.90;;;;;;4726981;30;20033;-76
2021/06/15 06:59:50;;;;;;;20.92;7.00;;;25.90;44.80;;;;;;4729535;30;20037;-74
2021/06/15 07:02:15;;;;;;;19.80;7.10;;;26.00;45.40;;;;;;4732100;30;20273;-74
2021/06/15 07:04:41;;;;;;;19.17;7.13;;;26.00;45.70;;;;;;4725760;30;20021;-74
2021/06/15 07:07:09;;;;;;;21.35;7.82;;;26.10;48.00;;;;;;4725036;30;20069;-74
2021/06/15 07:09:34;;;;;;;16.08;6.47;;;26.30;45.30;;;;;;4727527;30;20315;-74
2021/06/15 07:12:00;;;;;;;17.70;6.20;;;26.30;45.20;;;;;;4721292;30;20061;-74
2021/06/15 07:14:26;;;;;;;27.23;7.03;;;26.30;46.30;;;;;;4725824;30;20296;-75
2021/06/15 07:16:52;;;;;;;19.25;6.75;;;26.20;45.30;;;;;;4720280;30;20190;-74
2021/06/15 07:19:18;;;;;;;20.08;6.93;;;26.10;43.70;;;;;;4727382;30;20029;-75
2021/06/15 07:21:43;;;;;;;25.05;7.22;;;25.70;44.40;;;;;;4725903;30;20033;-76
2021/06/15 07:24:09;;;;;;;19.42;7.50;;;25.60;44.80;;;;;;4738521;30;20025;-74
2021/06/15 07:26:35;;;;;;;11.75;6.38;;;25.70;47.30;;;;;;4723540;30;20029;-75
2021/06/15 07:29:01;;;;;;;16.42;6.47;;;26.00;44.60;;;;;;4742598;30;20379;-74
2021/06/15 07:31:27;;;;;;;17.42;6.97;;;26.00;44.20;;;;;;4723059;30;20598;-73
2021/06/15 07:33:53;;;;;;;19.70;7.55;;;25.70;44.20;;;;;;4742632;30;20033;-74
2021/06/15 07:36:19;;;;;;;23.25;6.53;;;25.50;46.50;;;;;;4738829;30;20037;-75
2021/06/15 07:38:44;;;;;;;25.33;6.97;;;25.60;46.40;;;;;;4728722;30;20028;-74
2021/06/15 07:41:10;;;;;;;22.58;7.13;;;25.80;46.10;;;;;;4741560;30;20392;-74
2021/06/15 07:43:37;;;;;;;25.90;6.80;;;25.90;45.50;;;;;;4716610;30;20296;-74
2021/06/15 07:46:04;;;;;;;20.10;7.30;;;25.80;45.60;;;;;;4722714;30;20056;-73
2021/06/15 07:48:30;;;;;;;28.45;7.80;;;25.80;45.70;;;;;;4726218;30;20030;-73
2021/06/15 07:50:56;;;;;;;17.52;6.97;;;25.60;47.00;;;;;;4729371;30;20060;-73
2021/06/15 07:53:22;;;;;;;24.25;6.57;;;25.50;46.40;;;;;;4719279;30;20026;-74
2021/06/15 07:55:48;;;;;;;32.25;8.40;;;25.60;47.30;;;;;;4728381;30;20033;-74
2021/06/15 07:58:14;;;;;;;13.87;5.97;;;25.80;46.60;;;;;;4727541;30;20029;-74
2021/06/15 08:00:40;;;;;;;21.27;7.07;;;25.90;46.30;;;;;;4713873;30;20059;-74
2021/06/15 08:03:06;;;;;;;24.65;7.03;;;25.90;47.80;;;;;;4724980;30;20029;-74
2021/06/15 08:05:32;;;;;;;15.43;8.30;;;26.00;46.40;;;;;;4714488;30;20033;-74
2021/06/15 08:08:00;;;;;;;11.95;6.68;;;26.00;45.20;;;;;;4727134;30;20294;-73
2021/06/15 08:10:26;;;;;;;21.38;7.32;;;25.80;46.60;;;;;;4722931;30;20071;-74
2021/06/15 08:12:53;;;;;;;24.73;8.43;;;25.90;47.10;;;;;;4728343;30;20078;-74
2021/06/15 08:15:19;;;;;;;20.15;6.15;;;26.00;44.70;;;;;;4720178;30;20060;-74
2021/06/15 08:17:46;;;;;;;19.73;7.13;;;26.20;46.00;;;;;;4723856;30;20037;-74
2021/06/15 08:20:13;;;;;;;22.58;6.20;;;26.40;46.40;;;;;;4721033;30;20034;-74
2021/06/15 08:22:39;;;;;;;;;;;26.50;45.20;;;;;;4711452;30;20036;-74
2021/06/15 08:25:06;;;;;;;19.93;6.63;;;26.70;45.60;;;;;;4711697;30;20094;-74
2021/06/15 08:27:36;;;;;;;20.95;6.70;;;26.70;43.90;;;;;;4741551;30;20036;-75
2021/06/15 08:30:07;;;;;;;14.32;6.18;;;26.60;44.90;;;;;;4727117;30;20032;-74
2021/06/15 08:32:33;;;;;;;20.80;6.13;;;26.70;44.40;;;;;;4722030;30;20032;-74
2021/06/15 08:34:58;;;;;;;21.63;6.63;;;26.60;44.30;;;;;;4727739;30;20032;-75
2021/06/15 08:37:24;;;;;;;16.65;5.68;;;26.60;42.50;;;;;;4738652;30;20332;-74
2021/06/15 08:39:50;;;;;;;19.27;6.00;;;26.60;43.10;;;;;;4724981;30;20392;-75
2021/06/15 08:42:16;;;;;;;15.13;5.78;;;26.50;43.00;;;;;;4738353;30;20049;-74
2021/06/15 08:44:43;;;;;;;9.33;5.07;;;26.50;44.10;;;;;;4725122;30;20033;-74
2021/06/15 08:47:09;;;;;;;15.63;5.53;;;26.80;44.50;;;;;;4729732;30;20410;-74
2021/06/15 08:49:35;;;;;;;17.40;5.43;;;27.00;44.60;;;;;;4737391;30;20056;-74
2021/06/15 08:52:01;;;;;;;16.30;5.07;;;27.30;44.10;;;;;;4722992;30;20033;-74
2021/06/15 08:54:28;;;;;;;15.70;5.75;;;27.50;43.20;;;;;;4721527;30;20041;-75
2021/06/15 08:56:53;;;;;;;;;;;27.70;42.30;;;;;;4736397;30;20102;-74
2021/06/15 08:59:19;;;;;;;13.93;5.33;;;27.50;41.30;;;;;;4726741;30;19915;-73
2021/06/15 09:01:52;;;;;;;16.08;5.35;;;27.40;43.40;;;;;;4729336;30;20067;-74
2021/06/15 09:04:18;;;;;;;20.67;5.45;;;27.20;40.80;;;;;;4716237;30;20088;-74
2021/06/15 09:06:45;;;;;;;13.23;6.10;;;27.20;41.60;;;;;;4731164;30;20033;-74
2021/06/15 09:09:11;;;;;;;;;;;27.40;42.80;;;;;;4711037;30;20030;-73
2021/06/15 09:11:53;;;;;;;11.70;5.80;;;27.40;39.90;;;;;;4724621;30;20214;-73
2021/06/15 09:14:41;;;;;;;12.23;5.45;;;27.50;42.60;;;;;;4716579;30;20105;-73
2021/06/15 09:17:34;;;;;;;16.55;5.40;;;27.70;41.50;;;;;;4717886;30;20033;-73
2021/06/15 09:20:32;;;;;;;16.75;5.43;;;27.90;40.10;;;;;;4690635;30;20207;-73
2021/06/15 09:23:14;;;;;;;9.50;4.35;;;27.90;39.50;;;;;;4657159;30;20213;-74
2021/06/15 09:25:47;;;;;;;13.95;5.07;;;27.70;40.40;;;;;;4657099;30;20043;-73
2021/06/15 09:28:20;;;;;;;9.85;4.10;;;27.70;42.10;;;;;;4655653;30;20031;-74
2021/06/15 09:31:03;;;;;;;12.77;4.32;;;27.80;41.00;;;;;;4655778;30;20122;-73
2021/06/15 09:33:43;;;;;;;12.63;4.18;;;28.00;42.10;;;;;;4652996;30;20054;-73
2021/06/15 09:36:14;;;;;;;10.20;4.70;;;28.20;39.40;;;;;;4650522;30;20058;-74
2021/06/15 09:38:54;;;;;;;13.20;4.93;;;28.30;39.70;;;;;;4672938;30;20042;-73
2021/06/15 09:41:40;;;;;;;10.55;4.70;;;28.10;38.20;;;;;;4661841;30;20123;-74
2021/06/15 09:44:12;;;;;;;11.90;4.93;;;28.00;39.60;;;;;;4652164;30;20322;-74
2021/06/15 09:46:45;;;;;;;10.88;4.63;;;28.20;38.90;;;;;;4661743;30;20059;-74
2021/06/15 09:49:12;;;;;;;9.55;4.70;;;28.40;39.90;;;;;;4652944;30;20098;-74
2021/06/15 09:51:40;;;;;;;7.38;4.03;;;28.50;40.10;;;;;;4656138;30;20093;-73
2021/06/15 09:54:06;;;;;;;12.13;4.97;;;28.90;40.10;;;;;;4657103;30;20041;-74
2021/06/15 09:56:32;;;;;;;13.93;5.23;;;29.00;38.90;;;;;;4667344;30;20054;-74
2021/06/15 09:59:00;;;;;;;17.30;4.37;;;29.00;38.60;;;;;;4714134;30;20041;-74
2021/06/15 10:01:42;;;;;;;11.02;4.13;;;28.80;40.30;;;;;;4739757;30;20056;-74
2021/06/15 10:04:12;;;;;;;13.57;4.38;;;28.80;41.00;;;;;;4717861;30;20017;-74
2021/06/15 10:06:44;;;;;;;8.73;4.05;;;29.00;38.90;;;;;;4720488;30;20065;-74
2021/06/15 10:09:10;;;;;;;8.13;3.97;;;29.00;38.30;;;;;;4737488;30;20060;-74
2021/06/15 10:11:37;;;;;;;11.73;4.80;;;29.00;37.20;;;;;;4735001;30;20337;-74
2021/06/15 10:14:03;;;;;;;11.98;4.90;;;29.00;37.90;;;;;;4739827;30;20060;-74
2021/06/15 10:16:30;;;;;;;15.30;4.25;;;28.90;38.30;;;;;;4718921;30;20025;-73
2021/06/15 10:18:59;;;;;;;9.23;4.25;;;28.90;38.50;;;;;;4738009;30;20033;-74
2021/06/15 10:21:25;;;;;;;10.25;4.40;;;29.10;39.20;;;;;;4724899;30;20041;-74
2021/06/15 10:23:51;;;;;;;8.00;3.60;;;29.40;38.20;;;;;;4736609;30;20048;-74
2021/06/15 10:26:17;;;;;;;7.00;3.50;;;29.60;37.40;;;;;;4714152;30;20487;-74
2021/06/15 10:28:43;;;;;;;8.63;3.27;;;29.70;36.80;;;;;;4713787;30;20310;-74
2021/06/15 10:31:09;;;;;;;8.17;3.10;;;29.70;35.50;;;;;;4725539;30;20068;-74
2021/06/15 10:33:46;;;;;;;5.77;3.07;;;29.70;35.90;;;;;;4739368;30;20280;-74
2021/06/15 10:36:12;;;;;;;8.00;4.03;;;29.60;36.00;;;;;;4718440;30;20037;-75
2021/06/15 10:38:46;;;;;;;8.48;3.13;;;29.60;35.50;;;;;;4723179;30;20245;-74
2021/06/15 10:41:21;;;;;;;9.95;3.17;;;29.40;36.70;;;;;;4709172;30;20042;-74
2021/06/15 10:43:49;;;;;;;8.52;3.50;;;29.50;38.00;;;;;;4727432;30;20343;-74
2021/06/15 10:46:18;;;;;;;23.45;3.95;;;29.80;36.70;;;;;;4728948;30;20341;-74
2021/06/15 10:48:46;;;;;;;9.95;3.97;;;29.90;35.60;;;;;;4729688;30;20337;-74
2021/06/15 10:51:35;;;;;;;7.15;3.20;;;29.90;36.40;;;;;;4731764;30;20301;-75
2021/06/15 10:54:03;;;;;;;10.43;3.17;;;29.90;37.40;;;;;;4730905;30;20051;-75
2021/06/15 10:56:32;;;;;;;4.82;3.00;;;29.80;33.90;;;;;;4743223;30;20036;-74
2021/06/15 10:59:07;;;;;;;9.60;3.47;;;29.80;34.90;;;;;;4732020;30;20037;-75
2021/06/15 11:01:41;;;;;;;11.13;4.07;;;29.90;35.60;;;;;;4718322;30;20040;-74
2021/06/15 11:04:12;;;;;;;8.88;3.47;;;29.90;34.50;;;;;;4724132;30;20075;-74
2021/06/15 11:06:40;;;;;;;6.53;3.30;;;29.90;34.30;;;;;;4723598;30;20055;-76
2021/06/15 11:09:06;;;;;;;5.03;3.00;;;29.70;33.90;;;;;;4722557;30;20062;-75
2021/06/15 11:11:33;;;;;;;8.97;3.67;;;29.80;35.60;;;;;;4736309;30;20116;-75
2021/06/15 11:14:10;;;;;;;5.32;3.20;;;29.90;34.70;;;;;;4713495;30;20046;-74
2021/06/15 11:16:52;;;;;;;9.23;3.10;;;29.90;35.80;;;;;;4727453;30;20253;-75
2021/06/15 11:19:21;;;;;;;8.90;3.60;;;30.00;34.50;;;;;;4725928;30;20037;-75
2021/06/15 11:21:49;;;;;;;13.38;3.50;;;30.00;33.60;;;;;;4742180;30;20041;-74
2021/06/15 11:24:25;;;;;;;5.68;3.30;;;30.20;34.20;;;;;;4727952;30;20107;-75
2021/06/15 11:27:03;;;;;;;10.80;3.40;;;30.30;35.70;;;;;;4728441;30;20036;-75
2021/06/15 11:29:43;;;;;;;11.85;2.75;;;30.30;34.10;;;;;;4741069;30;20029;-74
2021/06/15 11:32:28;;;;;;;11.05;3.47;;;30.10;35.30;;;;;;4727760;30;20037;-75
2021/06/15 11:35:01;;;;;;;7.93;2.75;;;30.10;34.90;;;;;;4733287;30;20072;-74
2021/06/15 11:37:32;;;;;;;7.68;3.60;;;30.10;33.90;;;;;;4736783;30;20403;-75
2021/06/15 11:40:27;;;;;;;6.20;3.05;;;30.20;34.30;;;;;;4717404;30;20037;-75
2021/06/15 11:43:07;;;;;;;8.52;3.72;;;30.60;35.20;;;;;;4723054;30;20037;-75
2021/06/15 11:45:40;;;;;;;5.72;3.22;;;31.10;34.40;;;;;;4725029;30;20120;-74
2021/06/15 11:48:35;;;;;;;5.20;3.20;;;31.30;33.70;;;;;;4740290;30;20064;-75
2021/06/15 11:51:07;;;;;;;6.72;3.15;;;31.10;36.20;;;;;;4742006;30;20329;-74
2021/06/15 11:53:40;;;;;;;8.82;3.15;;;31.20;34.60;;;;;;4728180;30;20035;-75
2021/06/15 11:56:09;;;;;;;10.20;3.25;;;31.20;34.60;;;;;;4717193;30;20025;-74
2021/06/15 11:58:55;;;;;;;10.38;4.20;;;31.20;35.10;;;;;;4728477;30;20021;-74
2021/06/15 12:01:22;;;;;;;4.75;3.10;;;31.10;33.70;;;;;;4715011;30;20041;-74
2021/06/15 12:03:49;;;;;;;7.93;3.25;;;31.00;36.20;;;;;;4735679;30;20359;-74
2021/06/15 12:06:18;;;;;;;9.23;4.13;;;31.00;36.70;;;;;;4715725;30;20028;-74
2021/06/15 12:08:46;;;;;;;5.20;3.40;;;31.20;35.70;;;;;;4728434;30;20079;-74
2021/06/15 12:11:14;;;;;;;6.78;3.55;;;31.30;34.40;;;;;;4725431;30;20186;-74
2021/06/15 12:13:42;;;;;;;6.28;3.10;;;31.30;34.30;;;;;;4719477;30;20039;-74
2021/06/15 12:16:11;;;;;;;9.13;3.83;;;31.10;36.20;;;;;;4715006;30;20281;-74
2021/06/15 12:18:52;;;;;;;8.98;3.55;;;31.10;36.10;;;;;;4724845;30;20039;-74
2021/06/15 12:21:19;;;;;;;5.18;2.88;;;31.20;35.40;;;;;;4717290;30;20029;-74
2021/06/15 12:23:46;;;;;;;6.43;3.10;;;31.20;33.40;;;;;;4721192;30;20083;-74
2021/06/15 12:26:25;;;;;;;6.50;3.03;;;31.10;35.70;;;;;;4729551;30;20103;-74
2021/06/15 12:28:54;;;;;;;5.93;3.20;;;31.30;33.20;;;;;;4727641;30;20045;-74
2021/06/15 12:31:23;;;;;;;5.20;2.80;;;31.30;33.80;;;;;;4727792;30;20041;-74
2021/06/15 12:33:54;;;;;;;8.18;3.92;;;31.20;33.80;;;;;;4727680;30;20033;-74
2021/06/15 12:36:24;;;;;;;17.00;3.25;;;31.00;34.20;;;;;;4735096;30;20043;-75
2021/06/15 12:38:50;;;;;;;6.30;2.55;;;31.10;33.20;;;;;;4730772;30;20268;-74
2021/06/15 12:41:23;;;;;;;5.32;2.97;;;31.00;32.80;;;;;;4721798;30;20034;-75
2021/06/15 12:43:51;;;;;;;9.75;3.17;;;31.00;34.80;;;;;;4731109;30;20061;-75
2021/06/15 12:46:25;;;;;;;7.43;3.08;;;30.90;34.20;;;;;;4740564;30;20353;-74
2021/06/15 12:48:52;;;;;;;5.75;2.95;;;31.10;35.70;;;;;;4724930;30;20033;-73
2021/06/15 12:51:21;;;;;;;5.72;3.60;;;31.10;34.50;;;;;;4740495;30;20275;-74
2021/06/15 12:53:47;;;;;;;8.00;3.35;;;31.10;35.40;;;;;;4724540;30;20038;-75
2021/06/15 12:56:25;;;;;;;8.07;3.50;;;31.00;34.20;;;;;;4719536;30;20178;-75
2021/06/15 12:58:54;;;;;;;7.70;3.50;;;31.00;35.10;;;;;;4732879;30;20049;-74
2021/06/15 13:01:26;;;;;;;4.15;3.03;;;31.00;34.50;;;;;;4727384;30;20037;-75
2021/06/15 13:03:53;;;;;;;6.03;3.40;;;31.10;36.40;;;;;;4733765;30;20041;-74
2021/06/15 13:06:21;;;;;;;12.02;3.92;;;31.50;36.50;;;;;;4718924;30;20077;-75
2021/06/15 13:08:48;;;;;;;5.22;3.42;;;31.60;33.90;;;;;;4736657;30;20542;-74
2021/06/15 13:11:22;;;;;;;;;;;31.40;33.80;;;;;;4736779;30;20029;-74
2021/06/15 13:14:06;;;;;;;6.80;3.38;;;31.50;33.60;;;;;;4726764;30;19919;-74
2021/06/15 13:16:42;;;;;;;7.68;3.53;;;31.40;34.60;;;;;;4731510;30;20317;-73
2021/06/15 13:19:10;;;;;;;;;;;31.50;34.60;;;;;;4720883;30;20037;-74
2021/06/15 13:21:49;;;;;;;8.90;3.38;;;31.40;33.80;;;;;;4736036;30;19925;-74
2021/06/15 13:24:16;;;;;;;6.90;2.90;;;31.30;34.70;;;;;;4710176;30;20033;-73
2021/06/15 13:26:43;;;;;;;5.40;2.90;;;31.20;34.30;;;;;;4723328;30;20328;-74
2021/06/15 13:29:09;;;;;;;8.48;3.05;;;31.10;35.00;;;;;;4736672;30;20321;-73
2021/06/15 13:31:35;;;;;;;7.13;3.20;;;31.00;35.70;;;;;;4720377;30;20041;-74
2021/06/15 13:34:09;;;;;;;6.93;3.15;;;31.20;35.90;;;;;;4731312;30;20079;-74
2021/06/15 13:36:36;;;;;;;7.03;3.13;;;31.30;34.00;;;;;;4734536;30;20120;-73
2021/06/15 13:39:19;;;;;;;4.90;3.25;;;31.20;34.60;;;;;;4732681;30;20039;-73
2021/06/15 13:41:58;;;;;;;4.22;2.75;;;31.20;34.90;;;;;;4722422;30;20087;-73
2021/06/15 13:44:35;;;;;;;8.50;3.40;;;31.40;35.70;;;;;;4740038;30;20032;-74
2021/06/15 13:47:01;;;;;;;3.47;2.58;;;31.60;34.30;;;;;;4715196;30;20141;-73
2021/06/15 13:49:30;;;;;;;7.10;2.67;;;31.60;35.00;;;;;;4723567;30;20038;-73
2021/06/15 13:51:56;;;;;;;7.60;2.80;;;31.40;32.20;;;;;;4723822;30;20037;-74
2021/06/15 13:54:22;;;;;;;10.07;3.28;;;31.20;33.90;;;;;;4718843;30;20286;-73
2021/06/15 13:56:48;;;;;;;12.47;3.17;;;31.30;33.20;;;;;;4734246;30;20041;-74
2021/06/15 13:59:14;;;;;;;8.55;2.63;;;31.30;33.30;;;;;;4719066;30;20329;-74
2021/06/15 14:01:40;;;;;;;8.63;3.17;;;31.20;33.40;;;;;;4732882;30;20049;-74
2021/06/15 14:04:06;;;;;;;7.50;3.43;;;31.30;33.40;;;;;;4716701;30;20285;-74
2021/06/15 14:06:33;;;;;;;5.83;3.17;;;31.50;34.20;;;;;;4715541;30;20029;-74
2021/06/15 14:08:58;;;;;;;10.00;3.60;;;31.60;34.10;;;;;;4709536;30;20361;-75
2021/06/15 14:11:24;;;;;;;6.83;3.40;;;31.70;33.90;;;;;;4715312;30;20033;-73
2021/06/15 14:13:50;;;;;;;9.97;3.30;;;31.70;35.70;;;;;;4709839;30;20089;-75
2021/06/15 14:16:16;;;;;;;8.03;4.00;;;31.80;33.50;;;;;;4717637;30;20036;-74
2021/06/15 14:18:42;;;;;;;5.47;2.77;;;32.00;33.10;;;;;;4712921;30;20315;-74
2021/06/15 14:21:08;;;;;;;8.63;2.57;;;32.00;33.30;;;;;;4716830;30;20029;-74
2021/06/15 14:23:34;;;;;;;10.97;2.10;;;31.90;32.20;;;;;;4723535;30;20049;-74
2021/06/15 14:26:00;;;;;;;4.63;1.98;;;31.70;32.30;;;;;;4723677;30;20033;-74
2021/06/15 14:28:27;;;;;;;4.30;1.85;;;31.40;32.80;;;;;;4738992;30;20037;-75
2021/06/15 14:30:54;;;;;;;4.68;2.40;;;31.20;32.00;;;;;;4728136;30;20387;-75
2021/06/15 14:33:19;;;;;;;6.75;2.65;;;31.00;34.10;;;;;;4728770;30;20085;-74
2021/06/15 14:35:46;;;;;;;4.27;2.00;;;31.10;33.50;;;;;;4725625;30;20032;-73
2021/06/15 14:38:13;;;;;;;5.30;2.35;;;31.10;35.00;;;;;;4722578;30;20029;-73
2021/06/15 14:40:39;;;;;;;7.63;6.03;;;31.20;33.40;;;;;;4718021;30;20042;-75
2021/06/15 14:43:05;;;;;;;20.27;17.33;;;31.20;32.70;;;;;;4725552;30;20029;-76
2021/06/15 14:45:31;;;;;;;5.70;3.13;;;31.30;33.50;;;;;;4726322;30;20345;-75
2021/06/15 14:47:57;;;;;;;4.77;2.43;;;31.30;32.80;;;;;;4734865;30;20340;-76
2021/06/15 14:50:22;;;;;;;5.93;2.30;;;31.20;32.70;;;;;;4725889;30;20041;-76
2021/06/15 14:52:48;;;;;;;2.87;1.80;;;31.10;31.80;;;;;;4726353;30;20029;-77
2021/06/15 14:55:15;;;;;;;4.27;2.17;;;31.00;32.10;;;;;;4717134;30;20033;-76
2021/06/15 14:57:41;;;;;;;;;;;30.90;32.00;;;;;;4730327;30;20041;-73
2021/06/15 15:00:11;;;;;;;3.83;1.98;;;31.00;31.60;;;;;;4709327;30;19914;-74
2021/06/15 15:02:37;;;;;;;7.65;2.70;;;30.90;33.60;;;;;;4712914;30;20161;-74
2021/06/15 15:05:04;;;;;;;7.13;2.60;;;31.00;33.40;;;;;;4739077;30;20091;-74
2021/06/15 15:07:30;;;;;;;5.40;2.10;;;31.00;33.30;;;;;;4717697;30;20177;-74
2021/06/15 15:09:56;;;;;;;8.70;2.33;;;31.00;34.60;;;;;;4723700;30;20033;-74
2021/06/15 15:12:22;;;;;;;3.73;2.67;;;31.10;34.50;;;;;;4727445;30;20052;-75
2021/06/15 15:14:47;;;;;;;4.13;2.37;;;31.10;34.70;;;;;;4726024;30;20048;-75
2021/06/15 15:17:15;;;;;;;6.07;2.20;;;31.10;34.40;;;;;;4737597;30;20112;-75
2021/06/15 15:19:41;;;;;;;4.68;2.28;;;31.30;34.30;;;;;;4723274;30;20087;-76
2021/06/15 15:22:06;;;;;;;5.90;2.53;;;31.40;35.10;;;;;;4722067;30;20025;-74
2021/06/15 15:24:32;;;;;;;7.23;2.60;;;31.50;33.20;;;;;;4711837;30;20167;-74
2021/06/15 15:26:58;;;;;;;4.03;2.20;;;31.30;33.80;;;;;;4723193;30;20372;-75
2021/06/15 15:29:24;;;;;;;7.97;2.67;;;31.20;34.10;;;;;;4716843;30;20069;-74
2021/06/15 15:31:50;;;;;;;8.20;3.90;;;31.10;34.70;;;;;;4728738;30;20635;-75
2021/06/15 15:34:16;;;;;;;16.93;8.23;;;30.90;34.10;;;;;;4741896;30;20044;-75
2021/06/15 15:36:42;;;;;;;41.67;24.87;;;30.80;35.30;;;;;;4736887;30;20364;-74
2021/06/15 15:39:08;;;;;;;12.40;6.97;;;30.90;35.90;;;;;;4728006;30;20032;-75
2021/06/15 15:41:34;;;;;;;;;;;31.10;35.80;;;;;;4708017;30;20356;-76
2021/06/15 15:44:05;;;;;;;9.82;5.47;;;31.10;37.20;;;;;;4727655;30;19926;-75